createdAt,value
2018-07-04T00:01:53.668Z,3.83
2018-07-04T00:04:32.747Z,4.80
2018-07-04T00:07:11.874Z,4.60
2018-07-04T00:09:50.891Z,4.20
2018-07-04T00:12:30.110Z,4.10
2018-07-04T00:15:09.061Z,4.03
2018-07-04T00:17:48.256Z,3.73
2018-07-04T00:20:40.623Z,3.57
2018-07-04T00:23:19.739Z,4.17
2018-07-04T00:25:58.974Z,4.27
2018-07-04T00:28:38.172Z,3.70
2018-07-04T00:31:17.044Z,3.30
2018-07-04T00:33:56.036Z,2.80
2018-07-04T00:36:35.083Z,2.67
2018-07-04T00:39:14.164Z,2.93
2018-07-04T00:41:53.339Z,2.73
2018-07-04T00:44:32.450Z,2.57
2018-07-04T00:47:11.648Z,2.57
2018-07-04T00:49:50.599Z,3.10
2018-07-04T00:52:29.808Z,2.77
2018-07-04T00:55:09.010Z,2.33
2018-07-04T00:57:47.908Z,2.60
2018-07-04T01:00:27.068Z,2.50
2018-07-04T01:03:06.199Z,2.90
2018-07-04T01:05:45.206Z,2.73
2018-07-04T01:08:24.391Z,2.53
2018-07-04T01:11:03.428Z,2.90
2018-07-04T01:13:42.692Z,2.40
2018-07-04T01:16:21.692Z,2.40
2018-07-04T01:19:00.653Z,2.77
2018-07-04T01:21:33.771Z,2.93
2018-07-04T01:24:12.708Z,2.63
2018-07-04T01:26:51.795Z,2.20
2018-07-04T01:29:30.796Z,2.43
2018-07-04T01:32:09.824Z,2.40
2018-07-04T01:34:48.812Z,2.30
2018-07-04T01:37:27.856Z,2.07
2018-07-04T01:40:06.990Z,2.90
2018-07-04T01:42:46.116Z,2.30
2018-07-04T01:45:25.072Z,2.30
2018-07-04T01:48:04.096Z,2.20
2018-07-04T01:50:43.034Z,2.60
2018-07-04T01:53:22.159Z,2.20
2018-07-04T01:56:01.152Z,2.50
2018-07-04T01:58:40.247Z,2.00
2018-07-04T02:01:13.491Z,2.33
2018-07-04T02:03:52.596Z,2.77
2018-07-04T02:06:31.680Z,1.90
2018-07-04T02:09:10.765Z,2.23
2018-07-04T02:11:49.905Z,2.37
2018-07-04T02:14:29.044Z,2.07
2018-07-04T02:17:08.179Z,2.30
2018-07-04T02:19:47.326Z,2.70
2018-07-04T02:22:26.379Z,2.73
2018-07-04T02:25:05.615Z,2.37
2018-07-04T02:27:44.811Z,2.83
2018-07-04T02:30:23.824Z,2.13
2018-07-04T02:33:02.859Z,2.40
2018-07-04T02:35:41.961Z,2.67
2018-07-04T02:38:21.043Z,2.20
2018-07-04T02:41:00.101Z,2.17
2018-07-04T02:43:39.232Z,1.73
2018-07-04T02:46:24.214Z,2.23
2018-07-04T02:49:03.192Z,2.30
2018-07-04T02:51:42.312Z,2.43
2018-07-04T02:54:21.511Z,1.90
2018-07-04T02:57:00.694Z,2.30
2018-07-04T02:59:39.612Z,1.70
2018-07-04T03:02:18.796Z,2.03
2018-07-04T03:04:57.906Z,2.30
2018-07-04T03:07:31.192Z,2.07
2018-07-04T03:10:10.264Z,2.20
2018-07-04T03:12:49.225Z,2.20
2018-07-04T03:15:28.255Z,1.70
2018-07-04T03:18:07.408Z,2.10
2018-07-04T03:20:46.404Z,2.03
2018-07-04T03:23:25.562Z,2.17
2018-07-04T03:26:04.553Z,2.37
2018-07-04T03:28:43.502Z,3.10
2018-07-04T03:31:22.540Z,1.90
2018-07-04T03:34:01.697Z,2.03
2018-07-04T03:36:40.651Z,2.50
2018-07-04T03:39:19.780Z,2.83
2018-07-04T03:41:59.092Z,2.33
2018-07-04T03:44:38.173Z,2.60
2018-07-04T03:47:17.212Z,1.90
2018-07-04T03:49:56.181Z,2.33
2018-07-04T03:52:35.204Z,2.33
2018-07-04T03:55:14.369Z,2.43
2018-07-04T03:57:53.536Z,2.30
2018-07-04T04:00:32.664Z,2.67
2018-07-04T04:03:11.795Z,2.40
2018-07-04T04:05:50.790Z,2.63
2018-07-04T04:08:29.780Z,2.40
2018-07-04T04:11:08.879Z,2.70
2018-07-04T04:13:48.051Z,2.60
2018-07-04T04:16:21.357Z,2.63
2018-07-04T04:19:00.375Z,2.87
2018-07-04T04:21:39.531Z,2.63
2018-07-04T04:24:18.739Z,2.57
2018-07-04T04:26:57.772Z,2.60
2018-07-04T04:29:36.725Z,2.60
2018-07-04T04:32:15.780Z,2.63
2018-07-04T04:34:54.847Z,2.20
2018-07-04T04:37:34.078Z,2.63
2018-07-04T04:40:13.219Z,1.77
2018-07-04T04:42:52.313Z,2.83
2018-07-04T04:45:31.539Z,2.73
2018-07-04T04:48:10.713Z,2.80
2018-07-04T04:50:49.765Z,2.03
2018-07-04T04:53:28.914Z,2.70
2018-07-04T04:56:08.033Z,2.53
2018-07-04T04:58:47.168Z,2.40
2018-07-04T05:01:26.270Z,2.17
2018-07-04T05:03:59.451Z,2.70
2018-07-04T05:06:38.594Z,2.60
2018-07-04T05:09:17.758Z,1.97
2018-07-04T05:11:56.811Z,1.60
2018-07-04T05:14:35.965Z,2.37
2018-07-04T05:17:15.148Z,2.43
2018-07-04T05:19:54.288Z,2.70
2018-07-04T05:22:33.492Z,2.20
2018-07-04T05:25:12.756Z,2.47
2018-07-04T05:27:51.930Z,2.50
2018-07-04T05:30:31.043Z,2.40
2018-07-04T05:33:10.048Z,2.67
2018-07-04T05:35:49.177Z,2.90
2018-07-04T05:38:28.407Z,2.43
2018-07-04T05:41:07.562Z,2.73
2018-07-04T05:43:46.633Z,2.43
2018-07-04T05:46:25.848Z,2.27
2018-07-04T05:49:04.969Z,2.50
2018-07-04T05:51:44.330Z,3.00
2018-07-04T05:54:17.271Z,2.70
2018-07-04T05:56:56.361Z,2.73
2018-07-04T05:59:35.416Z,3.33
2018-07-04T06:02:14.507Z,2.67
2018-07-04T06:04:47.839Z,2.20
2018-07-04T06:07:26.938Z,3.00
2018-07-04T06:10:06.189Z,2.60
2018-07-04T06:12:39.471Z,2.20
2018-07-04T06:15:12.801Z,2.20
2018-07-04T06:17:51.837Z,2.00
2018-07-04T06:20:30.872Z,2.33
2018-07-04T06:23:09.879Z,2.20
2018-07-04T06:25:49.109Z,2.57
2018-07-04T06:28:28.243Z,2.40
2018-07-04T06:31:07.472Z,2.70
2018-07-04T06:33:46.742Z,2.20
2018-07-04T06:36:25.693Z,2.50
2018-07-04T06:38:52.311Z,2.07
2018-07-04T06:41:18.906Z,2.53
2018-07-04T06:43:45.516Z,2.10
2018-07-04T06:46:12.092Z,2.10
2018-07-04T06:48:38.752Z,2.27
2018-07-04T06:51:05.365Z,2.40
2018-07-04T06:53:32.006Z,2.80
2018-07-04T06:55:58.604Z,3.23
2018-07-04T06:58:25.715Z,2.10
2018-07-04T07:00:52.429Z,2.27
2018-07-04T07:03:31.597Z,2.40
2018-07-04T07:06:10.761Z,2.37
2018-07-04T07:08:44.087Z,2.33
2018-07-04T07:11:23.374Z,2.40
2018-07-04T07:14:02.380Z,2.60
2018-07-04T07:16:41.466Z,2.10
2018-07-04T07:19:14.808Z,3.10
2018-07-04T07:21:54.065Z,2.17
2018-07-04T07:24:33.214Z,2.43
2018-07-04T07:27:06.496Z,2.53
2018-07-04T07:29:45.560Z,2.63
2018-07-04T07:32:24.655Z,2.50
2018-07-04T07:34:57.897Z,2.40
2018-07-04T07:37:37.058Z,2.73
2018-07-04T07:40:16.189Z,2.40
2018-07-04T07:42:55.499Z,3.20
2018-07-04T07:45:34.529Z,2.60
2018-07-04T07:48:13.438Z,2.80
2018-07-04T07:50:52.540Z,2.97
2018-07-04T07:53:31.546Z,2.53
2018-07-04T07:56:10.568Z,2.17
2018-07-04T07:58:49.692Z,2.50
2018-07-04T08:01:28.692Z,2.60
2018-07-04T08:04:07.717Z,2.60
2018-07-04T08:06:46.856Z,2.07
2018-07-04T08:09:25.907Z,2.77
2018-07-04T08:12:05.139Z,3.07
2018-07-04T08:14:44.293Z,2.50
2018-07-04T08:17:23.503Z,2.63
2018-07-04T08:20:02.664Z,2.30
2018-07-04T08:22:41.643Z,2.43
2018-07-04T08:25:20.903Z,2.40
2018-07-04T08:28:00.039Z,2.73
2018-07-04T08:30:39.096Z,2.10
2018-07-04T08:33:12.453Z,2.30
2018-07-04T08:35:51.687Z,2.20
2018-07-04T08:38:30.860Z,2.83
2018-07-04T08:41:11.046Z,2.80
2018-07-04T08:43:50.464Z,2.30
2018-07-04T08:46:23.695Z,2.37
2018-07-04T08:49:02.816Z,2.87
2018-07-04T08:51:41.759Z,1.70
2018-07-04T08:54:20.804Z,2.93
2018-07-04T08:56:59.927Z,2.17
2018-07-04T08:59:38.963Z,2.50
2018-07-04T09:02:18.064Z,3.00
2018-07-04T09:04:57.143Z,2.20
2018-07-04T09:07:36.240Z,2.80
2018-07-04T09:10:15.451Z,2.27
2018-07-04T09:12:54.608Z,3.40
2018-07-04T09:15:33.715Z,2.33
2018-07-04T09:18:12.631Z,2.43
2018-07-04T09:20:51.687Z,2.47
2018-07-04T09:23:30.912Z,3.30
2018-07-04T09:26:10.628Z,2.80
2018-07-04T09:28:43.907Z,3.03
2018-07-04T09:31:17.078Z,2.77
2018-07-04T09:33:56.103Z,2.90
2018-07-04T09:36:35.209Z,4.30
2018-07-04T09:39:14.188Z,3.33
2018-07-04T09:41:47.479Z,2.77
2018-07-04T09:44:20.575Z,3.27
2018-07-04T09:46:53.820Z,3.00
2018-07-04T09:49:32.862Z,3.43
2018-07-04T09:52:11.983Z,3.60
2018-07-04T09:54:51.067Z,3.00
2018-07-04T09:57:30.172Z,3.30
2018-07-04T10:00:09.202Z,3.83
2018-07-04T10:02:48.400Z,3.83
2018-07-04T10:05:27.433Z,3.90
2018-07-04T10:08:06.440Z,3.40
2018-07-04T10:10:45.630Z,2.87
2018-07-04T10:13:24.723Z,3.47
2018-07-04T10:16:03.832Z,2.83
2018-07-04T10:18:43.020Z,4.50
2018-07-04T10:21:21.944Z,3.77
2018-07-04T10:24:01.023Z,3.10
2018-07-04T10:26:39.948Z,2.90
2018-07-04T10:29:18.964Z,3.20
2018-07-04T10:31:57.958Z,3.70
2018-07-04T10:34:37.242Z,3.70
2018-07-04T10:37:16.296Z,3.67
2018-07-04T10:39:55.371Z,4.37
2018-07-04T10:42:28.504Z,3.50
2018-07-04T10:45:07.692Z,3.60
2018-07-04T10:47:41.091Z,4.00
2018-07-04T10:50:14.300Z,4.00
2018-07-04T10:52:53.368Z,3.10
2018-07-04T10:55:32.525Z,3.60
2018-07-04T10:58:11.759Z,3.13
2018-07-04T11:00:50.972Z,4.13
2018-07-04T11:03:30.004Z,3.00
2018-07-04T11:06:09.021Z,2.67
2018-07-04T11:08:48.456Z,2.90
2018-07-04T11:11:28.096Z,2.90
2018-07-04T11:14:01.684Z,2.63
2018-07-04T11:16:40.933Z,2.77
2018-07-04T11:19:20.185Z,3.10
2018-07-04T11:21:59.248Z,2.40
2018-07-04T11:24:32.700Z,2.93
2018-07-04T11:27:12.047Z,2.90
2018-07-04T11:29:51.205Z,3.00
2018-07-04T11:32:30.404Z,2.83
2018-07-04T11:35:09.402Z,3.43
2018-07-04T11:37:48.648Z,4.67
2018-07-04T11:40:27.996Z,3.13
2018-07-04T11:43:06.899Z,3.53
2018-07-04T11:45:46.090Z,3.33
2018-07-04T11:48:12.762Z,3.70
2018-07-04T11:50:39.422Z,3.93
2018-07-04T11:53:06.099Z,3.77
2018-07-04T11:55:32.729Z,3.03
2018-07-04T11:57:59.377Z,4.30
2018-07-04T12:00:26.046Z,3.70
2018-07-04T12:02:52.708Z,4.60
2018-07-04T12:05:31.935Z,3.77
2018-07-04T12:07:59.029Z,4.33
2018-07-04T12:10:25.746Z,2.83
2018-07-04T12:12:52.349Z,4.13
2018-07-04T12:15:20.089Z,3.27
2018-07-04T12:17:46.692Z,3.80
2018-07-04T12:20:13.407Z,4.03
2018-07-04T12:22:40.560Z,3.50
2018-07-04T12:25:07.174Z,3.57
2018-07-04T12:27:34.739Z,3.47
2018-07-04T12:30:01.425Z,3.90
2018-07-04T12:32:28.048Z,3.97
2018-07-04T12:34:55.140Z,3.70
2018-07-04T12:37:21.781Z,3.87
2018-07-04T12:39:48.475Z,3.87
2018-07-04T12:42:15.084Z,4.00
2018-07-04T12:44:41.744Z,3.80
2018-07-04T12:47:08.482Z,4.30
2018-07-04T12:49:35.020Z,4.47
2018-07-04T12:52:01.676Z,4.10
2018-07-04T12:54:34.007Z,5.10
2018-07-04T12:57:13.107Z,4.87
2018-07-04T12:59:52.207Z,4.30
2018-07-04T13:02:31.435Z,3.77
2018-07-04T13:05:04.748Z,3.73
2018-07-04T13:07:43.864Z,3.80
2018-07-04T13:10:22.896Z,4.10
2018-07-04T13:13:02.241Z,3.27
2018-07-04T13:15:41.258Z,3.37
2018-07-04T13:18:20.435Z,3.47
2018-07-04T13:21:00.847Z,3.90
2018-07-04T13:23:40.092Z,4.10
2018-07-04T13:26:20.846Z,3.90
2018-07-04T13:29:00.401Z,4.60
2018-07-04T13:31:40.140Z,3.93
2018-07-04T13:34:19.588Z,4.50
2018-07-04T13:36:59.025Z,5.07
2018-07-04T13:39:32.834Z,4.40
2018-07-04T13:42:12.065Z,4.30
2018-07-04T13:44:51.270Z,4.23
2018-07-04T13:47:30.513Z,3.70
2018-07-04T13:50:09.788Z,4.57
2018-07-04T13:52:49.073Z,4.10
2018-07-04T13:55:28.385Z,3.90
2018-07-04T13:58:07.880Z,4.20
2018-07-04T14:00:47.269Z,3.63
2018-07-04T14:03:26.650Z,3.10
2018-07-04T14:05:59.966Z,3.60
2018-07-04T14:08:39.273Z,3.80
2018-07-04T14:11:18.606Z,4.50
2018-07-04T14:13:58.180Z,3.73
2018-07-04T14:16:37.562Z,3.90
2018-07-04T14:19:17.138Z,3.57
2018-07-04T14:21:50.567Z,3.73
2018-07-04T14:24:29.972Z,3.80
2018-07-04T14:27:09.046Z,2.80
2018-07-04T14:29:48.531Z,3.53
2018-07-04T14:32:27.915Z,3.57
2018-07-04T14:35:07.280Z,3.13
2018-07-04T14:37:46.528Z,3.13
2018-07-04T14:40:25.693Z,3.30
2018-07-04T14:43:04.907Z,3.87
2018-07-04T14:45:45.007Z,3.70
2018-07-04T14:48:24.215Z,3.13
2018-07-04T14:51:03.488Z,3.60
2018-07-04T14:53:36.855Z,3.13
2018-07-04T14:56:16.296Z,3.27
2018-07-04T14:58:55.525Z,3.63
2018-07-04T15:01:34.901Z,2.70
2018-07-04T15:07:16.919Z,2.93
2018-07-04T15:09:56.151Z,2.80
2018-07-04T15:12:35.320Z,2.67
2018-07-04T15:15:14.321Z,2.53
2018-07-04T15:17:53.299Z,2.77
2018-07-04T15:20:32.402Z,2.40
2018-07-04T15:23:05.631Z,2.43
2018-07-04T15:25:44.813Z,2.17
2018-07-04T15:28:17.899Z,1.97
2018-07-04T15:30:57.047Z,2.57
2018-07-04T15:33:31.813Z,2.30
2018-07-04T15:36:10.771Z,3.00
2018-07-04T15:38:49.737Z,2.30
2018-07-04T15:41:28.926Z,1.80
2018-07-04T15:44:07.972Z,2.50
2018-07-04T15:46:41.274Z,2.70
2018-07-04T15:49:16.456Z,2.50
2018-07-04T15:51:55.501Z,2.13
2018-07-04T15:54:34.603Z,2.43
2018-07-04T15:57:13.944Z,2.40
2018-07-04T15:59:53.112Z,2.97
2018-07-04T16:02:32.267Z,2.73
2018-07-04T16:05:11.472Z,3.43
2018-07-04T16:07:50.941Z,2.73
2018-07-04T16:10:30.125Z,2.80
2018-07-04T16:13:09.119Z,2.70
2018-07-04T16:15:48.255Z,2.30
2018-07-04T16:18:27.281Z,2.80
2018-07-04T16:21:06.311Z,3.63
2018-07-04T16:23:45.579Z,2.90
2018-07-04T16:26:24.615Z,3.10
2018-07-04T16:29:03.685Z,2.60
2018-07-04T16:31:42.864Z,3.10
2018-07-04T16:34:21.989Z,3.50
2018-07-04T16:37:01.023Z,3.30
2018-07-04T16:39:40.186Z,3.10
2018-07-04T16:42:19.588Z,2.83
2018-07-04T16:44:58.949Z,3.40
2018-07-04T16:47:38.444Z,3.17
2018-07-04T16:50:17.617Z,2.93
2018-07-04T16:52:56.688Z,3.60
2018-07-04T16:55:35.669Z,3.70
2018-07-04T16:58:14.676Z,4.43
2018-07-04T17:00:53.711Z,3.87
2018-07-04T17:03:32.667Z,3.77
2018-07-04T17:06:12.213Z,3.53
2018-07-04T17:08:51.371Z,3.03
2018-07-04T17:11:30.584Z,3.00
2018-07-04T17:14:09.844Z,3.17
2018-07-04T17:16:49.044Z,2.90
2018-07-04T17:19:28.788Z,3.30
2018-07-04T17:22:07.981Z,2.90
2018-07-04T17:24:47.200Z,12.17
2018-07-04T17:27:26.384Z,5.67
2018-07-04T17:30:05.449Z,6.83
2018-07-04T17:32:44.580Z,4.10
2018-07-04T17:35:23.839Z,3.90
2018-07-04T17:38:02.965Z,3.90
2018-07-04T17:40:42.212Z,5.10
2018-07-04T17:43:21.399Z,4.37
2018-07-04T17:46:00.553Z,3.13
2018-07-04T17:48:39.604Z,3.30
2018-07-04T17:51:18.638Z,4.70
2018-07-04T17:53:57.657Z,4.37
2018-07-04T17:56:36.796Z,4.07
2018-07-04T17:59:16.128Z,3.03
2018-07-04T18:01:55.266Z,3.50
2018-07-04T18:04:34.363Z,2.60
2018-07-04T18:07:13.515Z,3.67
2018-07-04T18:09:52.564Z,3.93
2018-07-04T18:12:31.765Z,3.40
2018-07-04T18:15:10.861Z,4.43
2018-07-04T18:17:49.930Z,4.67
2018-07-04T18:20:29.059Z,4.90
2018-07-04T18:23:08.186Z,4.27
2018-07-04T18:25:47.744Z,4.70
2018-07-04T18:28:26.843Z,4.67
2018-07-04T18:31:06.011Z,4.67
2018-07-04T18:33:45.427Z,4.90
2018-07-04T18:36:24.587Z,5.43
2018-07-04T18:39:04.065Z,7.33
2018-07-04T18:41:37.221Z,4.57
2018-07-04T18:44:16.434Z,4.13
2018-07-04T18:46:55.714Z,4.10
2018-07-04T18:49:34.680Z,5.17
2018-07-04T18:52:13.751Z,4.73
2018-07-04T18:54:52.629Z,4.27
2018-07-04T18:57:31.702Z,4.80
2018-07-04T19:00:10.815Z,4.20
2018-07-04T19:02:49.979Z,4.20
2018-07-04T19:05:29.280Z,4.30
2018-07-04T19:08:08.479Z,3.23
2018-07-04T19:10:41.837Z,4.27
2018-07-04T19:13:20.900Z,3.90
2018-07-04T19:15:54.228Z,3.67
2018-07-04T19:18:33.412Z,4.00
2018-07-04T19:21:12.623Z,12.13
2018-07-04T19:23:51.692Z,7.47
2018-07-04T19:26:25.152Z,11.00
2018-07-04T19:29:04.351Z,10.63
2018-07-04T19:31:44.435Z,4.47
2018-07-04T19:34:23.607Z,4.57
2018-07-04T19:36:56.898Z,4.60
2018-07-04T19:39:35.895Z,5.00
2018-07-04T19:42:14.994Z,4.87
2018-07-04T19:44:53.927Z,4.53
2018-07-04T19:47:32.827Z,4.23
2018-07-04T19:50:06.082Z,5.17
2018-07-04T19:52:45.437Z,5.10
2018-07-04T19:55:18.867Z,5.40
2018-07-04T19:57:58.623Z,4.90
2018-07-04T20:00:42.288Z,4.87
2018-07-04T20:03:22.142Z,4.90
2018-07-04T20:06:01.404Z,4.47
2018-07-04T20:08:40.501Z,4.93
2018-07-04T20:11:20.230Z,5.07
2018-07-04T20:13:59.422Z,4.30
2018-07-04T20:16:38.510Z,5.10
2018-07-04T20:19:18.113Z,5.00
2018-07-04T20:21:57.194Z,4.93
2018-07-04T20:24:36.149Z,5.00
2018-07-04T20:27:15.341Z,4.83
2018-07-04T20:29:54.549Z,6.10
2018-07-04T20:32:34.050Z,6.03
2018-07-04T20:35:13.103Z,5.40
2018-07-04T20:37:46.591Z,6.93
2018-07-04T20:40:26.088Z,5.30
2018-07-04T20:43:05.203Z,5.60
2018-07-04T20:45:44.413Z,4.77
2018-07-04T20:48:23.709Z,5.87
2018-07-04T20:50:57.066Z,5.63
2018-07-04T20:53:36.371Z,5.70
2018-07-04T20:56:15.495Z,6.00
2018-07-04T20:58:54.651Z,5.33
2018-07-04T21:01:34.021Z,6.30
2018-07-04T21:04:13.176Z,5.50
2018-07-04T21:06:52.437Z,5.90
2018-07-04T21:09:25.815Z,5.17
2018-07-04T21:12:04.978Z,5.50
2018-07-04T21:14:44.543Z,5.60
2018-07-04T21:17:18.119Z,5.67
2018-07-04T21:19:57.419Z,6.03
2018-07-04T21:22:36.897Z,5.70
2018-07-04T21:25:16.007Z,5.33
2018-07-04T21:27:49.508Z,5.20
2018-07-04T21:30:28.631Z,6.03
2018-07-04T21:33:07.860Z,4.80
2018-07-04T21:35:48.287Z,5.27
2018-07-04T21:38:27.592Z,5.80
2018-07-04T21:41:07.236Z,6.40
2018-07-04T21:43:46.445Z,5.63
2018-07-04T21:46:25.736Z,6.17
2018-07-04T21:49:04.856Z,6.30
2018-07-04T21:51:44.114Z,6.27
2018-07-04T21:54:23.338Z,5.80
2018-07-04T21:57:02.707Z,5.10
2018-07-04T21:59:41.945Z,5.93
2018-07-04T22:02:21.185Z,5.30
2018-07-04T22:05:00.370Z,6.13
2018-07-04T22:07:39.676Z,4.97
2018-07-04T22:10:19.690Z,6.00
2018-07-04T22:12:59.075Z,5.33
2018-07-04T22:15:38.739Z,6.20
2018-07-04T22:18:18.485Z,5.23
2018-07-04T22:20:57.822Z,5.93
2018-07-04T22:23:31.530Z,5.53
2018-07-04T22:26:11.107Z,7.60
2018-07-04T22:28:50.367Z,5.63
2018-07-04T22:31:23.896Z,5.57
2018-07-04T22:34:03.270Z,6.60
2018-07-04T22:36:42.374Z,5.90
2018-07-04T22:39:16.447Z,5.50
2018-07-04T22:41:55.818Z,6.00
2018-07-04T22:44:29.450Z,5.03
2018-07-04T22:47:02.883Z,6.63
2018-07-04T22:49:36.261Z,5.83
2018-07-04T22:52:15.805Z,5.40
2018-07-04T22:54:49.562Z,5.33
2018-07-04T22:57:29.323Z,5.83
2018-07-04T23:00:02.859Z,5.57
2018-07-04T23:02:42.189Z,4.87
2018-07-04T23:05:21.727Z,5.57
2018-07-04T23:08:01.123Z,5.80
2018-07-04T23:10:34.877Z,4.20
2018-07-04T23:13:14.108Z,4.83
2018-07-04T23:15:47.413Z,4.77
2018-07-04T23:18:20.887Z,5.53
2018-07-04T23:21:00.549Z,4.97
2018-07-04T23:23:39.540Z,5.43
2018-07-04T23:26:18.707Z,5.00
2018-07-04T23:28:58.077Z,5.00
2018-07-04T23:31:37.449Z,5.37
2018-07-04T23:34:16.735Z,5.20
2018-07-04T23:36:56.017Z,5.10
2018-07-04T23:39:35.305Z,5.70
2018-07-04T23:42:14.745Z,5.47
2018-07-04T23:44:54.094Z,5.80
2018-07-04T23:47:33.352Z,5.60
2018-07-04T23:50:12.698Z,4.80
2018-07-04T23:52:52.068Z,5.03
2018-07-04T23:55:31.736Z,4.70
2018-07-04T23:58:10.855Z,5.13
